sensor_id;sensor_type;location;lat;lon;timestamp;pressure;altitude;pressure_sealevel;temperature;humidity
70954;BME280;58618;47.490;8.736;2023-04-28T00:00:23;96415.63;;;9.88;100.00
70954;BME280;58618;47.490;8.736;2023-04-28T00:03:10;96411.56;;;9.82;100.00
70954;BME280;58618;47.490;8.736;2023-04-28T00:05:58;96402.25;;;9.86;100.00
70954;BME280;58618;47.490;8.736;2023-04-28T00:08:46;96411.75;;;9.90;100.00
70954;BME280;58618;47.490;8.736;2023-04-28T00:11:33;96414.78;;;9.97;100.00
70954;BME280;58618;47.490;8.736;2023-04-28T00:14:21;96419.72;;;9.94;100.00
70954;BME280;58618;47.490;8.736;2023-04-28T00:17:08;96414.34;;;9.85;100.00
70954;BME280;58618;47.490;8.736;2023-04-28T00:19:55;96411.25;;;9.88;100.00
70954;BME280;58618;47.490;8.736;2023-04-28T00:22:43;96408.44;;;9.85;100.00
70954;BME280;58618;47.490;8.736;2023-04-28T00:25:32;96403.34;;;10.08;100.00
70954;BME280;58618;47.490;8.736;2023-04-28T00:28:19;96406.75;;;10.04;100.00
70954;BME280;58618;47.490;8.736;2023-04-28T00:31:09;96405.09;;;9.84;100.00
70954;BME280;58618;47.490;8.736;2023-04-28T00:33:57;96403.72;;;9.97;100.00
70954;BME280;58618;47.490;8.736;2023-04-28T00:36:44;96402.63;;;10.03;100.00
70954;BME280;58618;47.490;8.736;2023-04-28T00:39:32;96400.06;;;10.03;100.00
70954;BME280;58618;47.490;8.736;2023-04-28T00:42:20;96400.88;;;9.98;100.00
70954;BME280;58618;47.490;8.736;2023-04-28T00:45:08;96407.53;;;9.99;100.00
70954;BME280;58618;47.490;8.736;2023-04-28T00:47:57;96400.63;;;9.95;100.00
70954;BME280;58618;47.490;8.736;2023-04-28T00:50:45;96399.88;;;9.89;100.00
70954;BME280;58618;47.490;8.736;2023-04-28T00:53:34;96382.19;;;9.83;100.00
70954;BME280;58618;47.490;8.736;2023-04-28T00:56:21;96381.09;;;9.89;100.00
70954;BME280;58618;47.490;8.736;2023-04-28T00:59:10;96383.50;;;10.09;100.00
70954;BME280;58618;47.490;8.736;2023-04-28T01:01:59;96387.56;;;10.20;100.00
70954;BME280;58618;47.490;8.736;2023-04-28T01:04:47;96389.16;;;10.11;100.00
70954;BME280;58618;47.490;8.736;2023-04-28T01:07:35;96381.16;;;10.12;100.00
70954;BME280;58618;47.490;8.736;2023-04-28T01:10:22;96368.06;;;10.09;100.00
70954;BME280;58618;47.490;8.736;2023-04-28T01:13:09;96371.34;;;10.20;100.00
70954;BME280;58618;47.490;8.736;2023-04-28T01:15:59;96378.56;;;10.18;100.00
70954;BME280;58618;47.490;8.736;2023-04-28T01:18:46;96372.09;;;10.20;100.00
70954;BME280;58618;47.490;8.736;2023-04-28T01:21:34;96372.06;;;10.25;100.00
70954;BME280;58618;47.490;8.736;2023-04-28T01:24:23;96374.53;;;10.35;100.00
70954;BME280;58618;47.490;8.736;2023-04-28T01:27:10;96379.13;;;10.38;100.00
70954;BME280;58618;47.490;8.736;2023-04-28T01:29:57;96369.47;;;10.25;100.00
70954;BME280;58618;47.490;8.736;2023-04-28T01:32:45;96375.63;;;10.29;100.00
70954;BME280;58618;47.490;8.736;2023-04-28T01:35:32;96383.56;;;10.33;100.00
70954;BME280;58618;47.490;8.736;2023-04-28T01:38:19;96384.28;;;10.38;100.00
70954;BME280;58618;47.490;8.736;2023-04-28T01:41:08;96392.53;;;10.40;100.00
70954;BME280;58618;47.490;8.736;2023-04-28T01:43:55;96407.53;;;10.33;100.00
70954;BME280;58618;47.490;8.736;2023-04-28T01:46:43;96407.44;;;10.43;100.00
70954;BME280;58618;47.490;8.736;2023-04-28T01:49:30;96422.28;;;10.56;100.00
70954;BME280;58618;47.490;8.736;2023-04-28T01:52:17;96427.44;;;10.56;100.00
70954;BME280;58618;47.490;8.736;2023-04-28T01:55:07;96396.25;;;10.53;100.00
70954;BME280;58618;47.490;8.736;2023-04-28T01:57:56;96400.09;;;10.55;100.00
70954;BME280;58618;47.490;8.736;2023-04-28T02:00:44;96386.81;;;10.43;100.00
70954;BME280;58618;47.490;8.736;2023-04-28T02:03:31;96391.91;;;10.48;100.00
70954;BME280;58618;47.490;8.736;2023-04-28T02:06:18;96385.94;;;10.29;100.00
70954;BME280;58618;47.490;8.736;2023-04-28T02:09:06;96373.31;;;10.28;100.00
70954;BME280;58618;47.490;8.736;2023-04-28T02:11:53;96369.03;;;10.13;100.00
70954;BME280;58618;47.490;8.736;2023-04-28T02:14:42;96361.34;;;10.08;100.00
70954;BME280;58618;47.490;8.736;2023-04-28T02:17:29;96362.69;;;10.00;100.00
70954;BME280;58618;47.490;8.736;2023-04-28T02:20:16;96385.53;;;10.12;100.00
70954;BME280;58618;47.490;8.736;2023-04-28T02:23:04;96383.94;;;10.21;100.00
70954;BME280;58618;47.490;8.736;2023-04-28T02:25:59;96391.59;;;10.26;100.00
70954;BME280;58618;47.490;8.736;2023-04-28T02:28:47;96390.88;;;10.26;100.00
70954;BME280;58618;47.490;8.736;2023-04-28T02:31:36;96399.81;;;10.33;100.00
70954;BME280;58618;47.490;8.736;2023-04-28T02:34:23;96385.31;;;10.37;100.00
70954;BME280;58618;47.490;8.736;2023-04-28T02:37:10;96387.25;;;10.50;100.00
70954;BME280;58618;47.490;8.736;2023-04-28T02:39:57;96389.19;;;10.40;100.00
70954;BME280;58618;47.490;8.736;2023-04-28T02:42:45;96380.09;;;10.42;100.00
70954;BME280;58618;47.490;8.736;2023-04-28T02:45:32;96380.16;;;10.37;100.00
70954;BME280;58618;47.490;8.736;2023-04-28T02:48:21;96381.66;;;10.43;100.00
70954;BME280;58618;47.490;8.736;2023-04-28T02:51:09;96392.63;;;10.54;100.00
70954;BME280;58618;47.490;8.736;2023-04-28T02:53:56;96394.81;;;10.42;100.00
70954;BME280;58618;47.490;8.736;2023-04-28T02:56:43;96395.59;;;10.42;100.00
70954;BME280;58618;47.490;8.736;2023-04-28T02:59:30;96400.63;;;10.52;100.00
70954;BME280;58618;47.490;8.736;2023-04-28T03:02:18;96391.84;;;10.53;100.00
70954;BME280;58618;47.490;8.736;2023-04-28T03:05:09;96399.13;;;10.51;100.00
70954;BME280;58618;47.490;8.736;2023-04-28T03:07:56;96396.03;;;10.49;100.00
70954;BME280;58618;47.490;8.736;2023-04-28T03:10:44;96401.97;;;10.50;100.00
70954;BME280;58618;47.490;8.736;2023-04-28T03:13:31;96403.41;;;10.61;100.00
70954;BME280;58618;47.490;8.736;2023-04-28T03:16:19;96408.66;;;10.51;100.00
70954;BME280;58618;47.490;8.736;2023-04-28T03:19:06;96407.53;;;10.33;100.00
70954;BME280;58618;47.490;8.736;2023-04-28T03:21:54;96426.75;;;10.46;100.00
70954;BME280;58618;47.490;8.736;2023-04-28T03:24:42;96401.50;;;10.43;100.00
70954;BME280;58618;47.490;8.736;2023-04-28T03:27:29;96401.28;;;10.39;100.00
70954;BME280;58618;47.490;8.736;2023-04-28T03:30:16;96398.59;;;10.26;100.00
70954;BME280;58618;47.490;8.736;2023-04-28T03:33:04;96405.50;;;10.30;100.00
70954;BME280;58618;47.490;8.736;2023-04-28T03:35:52;96406.44;;;10.39;100.00
70954;BME280;58618;47.490;8.736;2023-04-28T03:38:42;96411.16;;;10.32;100.00
70954;BME280;58618;47.490;8.736;2023-04-28T03:41:29;96406.00;;;10.32;100.00
70954;BME280;58618;47.490;8.736;2023-04-28T03:44:16;96405.50;;;10.30;100.00
70954;BME280;58618;47.490;8.736;2023-04-28T03:47:03;96393.94;;;10.28;100.00
70954;BME280;58618;47.490;8.736;2023-04-28T03:49:51;96387.31;;;10.16;100.00
70954;BME280;58618;47.490;8.736;2023-04-28T03:52:38;96380.88;;;10.19;100.00
70954;BME280;58618;47.490;8.736;2023-04-28T03:55:27;96385.41;;;10.27;100.00
70954;BME280;58618;47.490;8.736;2023-04-28T03:58:14;96384.22;;;10.20;100.00
70954;BME280;58618;47.490;8.736;2023-04-28T04:01:01;96393.72;;;10.24;100.00
70954;BME280;58618;47.490;8.736;2023-04-28T04:03:50;96403.94;;;10.34;100.00
70954;BME280;58618;47.490;8.736;2023-04-28T04:06:37;96414.69;;;10.41;100.00
70954;BME280;58618;47.490;8.736;2023-04-28T04:09:24;96414.19;;;10.39;100.00
70954;BME280;58618;47.490;8.736;2023-04-28T04:12:13;96418.84;;;10.37;100.00
70954;BME280;58618;47.490;8.736;2023-04-28T04:15:01;96410.84;;;10.39;100.00
70954;BME280;58618;47.490;8.736;2023-04-28T04:17:48;96418.25;;;10.45;100.00
70954;BME280;58618;47.490;8.736;2023-04-28T04:20:36;96418.72;;;10.47;100.00
70954;BME280;58618;47.490;8.736;2023-04-28T04:23:23;96414.25;;;10.58;100.00
70954;BME280;58618;47.490;8.736;2023-04-28T04:26:11;96427.44;;;10.56;100.00
70954;BME280;58618;47.490;8.736;2023-04-28T04:28:59;96421.00;;;10.54;100.00
70954;BME280;58618;47.490;8.736;2023-04-28T04:31:47;96401.34;;;10.34;100.00
70954;BME280;58618;47.490;8.736;2023-04-28T04:34:34;96426.72;;;10.51;100.00
70954;BME280;58618;47.490;8.736;2023-04-28T04:37:22;96435.22;;;10.51;100.00
70954;BME280;58618;47.490;8.736;2023-04-28T04:40:10;96419.59;;;10.38;100.00
70954;BME280;58618;47.490;8.736;2023-04-28T04:42:57;96422.91;;;10.43;100.00
70954;BME280;58618;47.490;8.736;2023-04-28T04:45:46;96435.75;;;10.48;100.00
70954;BME280;58618;47.490;8.736;2023-04-28T04:48:33;96422.69;;;10.40;100.00
70954;BME280;58618;47.490;8.736;2023-04-28T04:51:21;96440.47;;;10.41;100.00
70954;BME280;58618;47.490;8.736;2023-04-28T04:54:08;96436.47;;;10.54;100.00
70954;BME280;58618;47.490;8.736;2023-04-28T04:56:55;96442.97;;;10.51;100.00
70954;BME280;58618;47.490;8.736;2023-04-28T04:59:43;96447.59;;;10.49;100.00
70954;BME280;58618;47.490;8.736;2023-04-28T05:02:32;96451.59;;;10.66;100.00
70954;BME280;58618;47.490;8.736;2023-04-28T05:05:19;96463.25;;;10.58;100.00
70954;BME280;58618;47.490;8.736;2023-04-28T05:08:07;96452.88;;;10.63;100.00
70954;BME280;58618;47.490;8.736;2023-04-28T05:10:54;96446.25;;;10.57;100.00
70954;BME280;58618;47.490;8.736;2023-04-28T05:13:41;96436.66;;;10.63;100.00
70954;BME280;58618;47.490;8.736;2023-04-28T05:16:29;96457.63;;;10.80;100.00
70954;BME280;58618;47.490;8.736;2023-04-28T05:19:18;96455.88;;;10.75;100.00
70954;BME280;58618;47.490;8.736;2023-04-28T05:22:05;96464.31;;;10.81;100.00
70954;BME280;58618;47.490;8.736;2023-04-28T05:24:52;96462.19;;;10.88;100.00
70954;BME280;58618;47.490;8.736;2023-04-28T05:27:40;96447.59;;;10.78;100.00
70954;BME280;58618;47.490;8.736;2023-04-28T05:30:27;96448.91;;;10.76;100.00
70954;BME280;58618;47.490;8.736;2023-04-28T05:33:14;96456.00;;;10.89;100.00
70954;BME280;58618;47.490;8.736;2023-04-28T05:36:04;96455.34;;;10.78;100.00
70954;BME280;58618;47.490;8.736;2023-04-28T05:38:51;96434.56;;;10.65;100.00
70954;BME280;58618;47.490;8.736;2023-04-28T05:41:39;96450.84;;;10.89;100.00
70954;BME280;58618;47.490;8.736;2023-04-28T05:44:26;96443.78;;;10.71;100.00
70954;BME280;58618;47.490;8.736;2023-04-28T05:47:14;96459.72;;;10.78;100.00
70954;BME280;58618;47.490;8.736;2023-04-28T05:50:01;96450.38;;;10.82;100.00
70954;BME280;58618;47.490;8.736;2023-04-28T05:52:50;96431.94;;;10.70;100.00
70954;BME280;58618;47.490;8.736;2023-04-28T05:55:38;96421.19;;;10.63;100.00
70954;BME280;58618;47.490;8.736;2023-04-28T05:58:25;96430.38;;;10.69;100.00
70954;BME280;58618;47.490;8.736;2023-04-28T06:01:13;96426.72;;;10.75;100.00
70954;BME280;58618;47.490;8.736;2023-04-28T06:04:00;96443.47;;;10.77;100.00
70954;BME280;58618;47.490;8.736;2023-04-28T06:06:47;96447.84;;;10.77;100.00
70954;BME280;58618;47.490;8.736;2023-04-28T06:09:36;96454.00;;;10.81;100.00
70954;BME280;58618;47.490;8.736;2023-04-28T06:12:24;96456.06;;;10.79;100.00
70954;BME280;58618;47.490;8.736;2023-04-28T06:15:11;96466.06;;;10.85;100.00
70954;BME280;58618;47.490;8.736;2023-04-28T06:17:59;96464.00;;;10.87;100.00
70954;BME280;58618;47.490;8.736;2023-04-28T06:20:47;96445.66;;;10.89;100.00
70954;BME280;58618;47.490;8.736;2023-04-28T06:23:34;96445.75;;;10.79;100.00
70954;BME280;58618;47.490;8.736;2023-04-28T06:26:25;96442.19;;;10.98;100.00
70954;BME280;58618;47.490;8.736;2023-04-28T06:29:12;96440.00;;;10.87;100.00
70954;BME280;58618;47.490;8.736;2023-04-28T06:31:59;96422.28;;;10.80;100.00
70954;BME280;58618;47.490;8.736;2023-04-28T06:34:47;96439.84;;;10.78;100.00
70954;BME280;58618;47.490;8.736;2023-04-28T06:37:34;96426.66;;;10.80;100.00
70954;BME280;58618;47.490;8.736;2023-04-28T06:40:21;96431.81;;;10.80;100.00
70954;BME280;58618;47.490;8.736;2023-04-28T06:43:10;96415.81;;;10.83;100.00
70954;BME280;58618;47.490;8.736;2023-04-28T06:45:57;96411.28;;;10.70;100.00
70954;BME280;58618;47.490;8.736;2023-04-28T06:48:45;96435.94;;;10.81;100.00
70954;BME280;58618;47.490;8.736;2023-04-28T06:51:32;96432.38;;;10.77;100.00
70954;BME280;58618;47.490;8.736;2023-04-28T06:54:19;96448.31;;;10.84;100.00
70954;BME280;58618;47.490;8.736;2023-04-28T06:57:07;96438.97;;;10.88;100.00
70954;BME280;58618;47.490;8.736;2023-04-28T06:59:56;96429.63;;;10.92;100.00
70954;BME280;58618;47.490;8.736;2023-04-28T07:02:43;96411.06;;;10.90;100.00
70954;BME280;58618;47.490;8.736;2023-04-28T07:05:31;96417.34;;;10.84;100.00
70954;BME280;58618;47.490;8.736;2023-04-28T07:08:19;96423.69;;;10.91;100.00
70954;BME280;58618;47.490;8.736;2023-04-28T07:11:07;96416.66;;;10.97;100.00
70954;BME280;58618;47.490;8.736;2023-04-28T07:13:54;96386.97;;;10.76;100.00
70954;BME280;58618;47.490;8.736;2023-04-28T07:16:43;96407.56;;;11.05;100.00
70954;BME280;58618;47.490;8.736;2023-04-28T07:19:30;96404.53;;;11.16;100.00
70954;BME280;58618;47.490;8.736;2023-04-28T07:22:18;96408.31;;;11.42;100.00
70954;BME280;58618;47.490;8.736;2023-04-28T07:25:05;96407.72;;;11.51;100.00
70954;BME280;58618;47.490;8.736;2023-04-28T07:27:53;96396.09;;;11.48;100.00
70954;BME280;58618;47.490;8.736;2023-04-28T07:30:40;96387.94;;;11.60;100.00
70954;BME280;58618;47.490;8.736;2023-04-28T07:33:29;96401.91;;;11.59;100.00
70954;BME280;58618;47.490;8.736;2023-04-28T07:36:16;96403.50;;;11.55;100.00
70954;BME280;58618;47.490;8.736;2023-04-28T07:39:04;96424.53;;;11.67;100.00
70954;BME280;58618;47.490;8.736;2023-04-28T07:41:52;96427.69;;;11.82;100.00
70954;BME280;58618;47.490;8.736;2023-04-28T07:44:39;96423.44;;;11.73;100.00
70954;BME280;58618;47.490;8.736;2023-04-28T07:47:26;96424.44;;;11.91;100.00
70954;BME280;58618;47.490;8.736;2023-04-28T07:50:15;96438.66;;;11.93;100.00
70954;BME280;58618;47.490;8.736;2023-04-28T07:53:03;96427.41;;;11.84;100.00
70954;BME280;58618;47.490;8.736;2023-04-28T07:55:50;96429.00;;;11.80;100.00
70954;BME280;58618;47.490;8.736;2023-04-28T07:58:38;96407.22;;;11.49;100.00
70954;BME280;58618;47.490;8.736;2023-04-28T08:01:25;96432.22;;;11.72;100.00
70954;BME280;58618;47.490;8.736;2023-04-28T08:04:13;96436.50;;;11.81;100.00
70954;BME280;58618;47.490;8.736;2023-04-28T08:07:01;96433.06;;;11.86;100.00
70954;BME280;58618;47.490;8.736;2023-04-28T08:09:49;96449.69;;;11.80;100.00
70954;BME280;58618;47.490;8.736;2023-04-28T08:12:37;96443.00;;;11.79;100.00
70954;BME280;58618;47.490;8.736;2023-04-28T08:15:25;96454.84;;;11.80;100.00
70954;BME280;58618;47.490;8.736;2023-04-28T08:18:13;96457.00;;;11.92;100.00
70954;BME280;58618;47.490;8.736;2023-04-28T08:21:00;96464.34;;;12.03;100.00
70954;BME280;58618;47.490;8.736;2023-04-28T08:23:49;96472.63;;;12.00;100.00
70954;BME280;58618;47.490;8.736;2023-04-28T08:26:36;96476.56;;;11.98;100.00
70954;BME280;58618;47.490;8.736;2023-04-28T08:29:24;96467.53;;;11.95;100.00
70954;BME280;58618;47.490;8.736;2023-04-28T08:32:12;96457.69;;;11.97;100.00
70954;BME280;58618;47.490;8.736;2023-04-28T08:34:59;96463.06;;;12.01;100.00
70954;BME280;58618;47.490;8.736;2023-04-28T08:37:46;96470.78;;;11.87;100.00
70954;BME280;58618;47.490;8.736;2023-04-28T08:40:35;96473.72;;;11.99;100.00
70954;BME280;58618;47.490;8.736;2023-04-28T08:43:24;96468.63;;;12.26;100.00
70954;BME280;58618;47.490;8.736;2023-04-28T08:46:13;96476.69;;;12.39;100.00
70954;BME280;58618;47.490;8.736;2023-04-28T08:49:02;96483.00;;;12.33;100.00
70954;BME280;58618;47.490;8.736;2023-04-28T08:51:55;96477.50;;;12.53;100.00
70954;BME280;58618;47.490;8.736;2023-04-28T08:54:43;96490.50;;;12.48;100.00
70954;BME280;58618;47.490;8.736;2023-04-28T08:57:37;96470.44;;;12.26;100.00
70954;BME280;58618;47.490;8.736;2023-04-28T09:00:24;96484.66;;;12.10;100.00
70954;BME280;58618;47.490;8.736;2023-04-28T09:03:12;96482.22;;;12.32;100.00
70954;BME280;58618;47.490;8.736;2023-04-28T09:06:00;96472.03;;;12.41;100.00
70954;BME280;58618;47.490;8.736;2023-04-28T09:08:48;96484.19;;;12.54;100.00
70954;BME280;58618;47.490;8.736;2023-04-28T09:11:35;96486.09;;;12.35;100.00
70954;BME280;58618;47.490;8.736;2023-04-28T09:14:38;96482.56;;;12.44;100.00
70954;BME280;58618;47.490;8.736;2023-04-28T09:17:25;96486.88;;;12.49;100.00
70954;BME280;58618;47.490;8.736;2023-04-28T09:20:18;96489.16;;;12.37;100.00
70954;BME280;58618;47.490;8.736;2023-04-28T09:23:14;96490.91;;;12.55;100.00
70954;BME280;58618;47.490;8.736;2023-04-28T09:26:03;96483.56;;;12.62;100.00
70954;BME280;58618;47.490;8.736;2023-04-28T09:28:51;96483.47;;;12.67;100.00
70954;BME280;58618;47.490;8.736;2023-04-28T09:31:43;96492.09;;;12.76;100.00
70954;BME280;58618;47.490;8.736;2023-04-28T09:34:41;96475.19;;;12.51;100.00
70954;BME280;58618;47.490;8.736;2023-04-28T09:37:30;96482.50;;;12.63;100.00
70954;BME280;58618;47.490;8.736;2023-04-28T09:40:17;96479.84;;;12.68;100.00
70954;BME280;58618;47.490;8.736;2023-04-28T09:43:22;96490.28;;;12.77;100.00
70954;BME280;58618;47.490;8.736;2023-04-28T09:46:09;96481.06;;;12.70;100.00
70954;BME280;58618;47.490;8.736;2023-04-28T09:49:00;96474.56;;;12.73;100.00
70954;BME280;58618;47.490;8.736;2023-04-28T09:51:48;96475.06;;;12.43;100.00
70954;BME280;58618;47.490;8.736;2023-04-28T09:54:35;96478.75;;;12.55;100.00
70954;BME280;58618;47.490;8.736;2023-04-28T09:57:22;96473.91;;;12.67;100.00
70954;BME280;58618;47.490;8.736;2023-04-28T10:00:10;96478.47;;;12.57;100.00
70954;BME280;58618;47.490;8.736;2023-04-28T10:02:59;96488.06;;;12.70;100.00
70954;BME280;58618;47.490;8.736;2023-04-28T10:05:49;96490.22;;;12.95;100.00
70954;BME280;58618;47.490;8.736;2023-04-28T10:08:38;96483.31;;;13.04;100.00
70954;BME280;58618;47.490;8.736;2023-04-28T10:11:26;96472.97;;;13.18;100.00
70954;BME280;58618;47.490;8.736;2023-04-28T10:14:14;96480.81;;;12.99;100.00
70954;BME280;58618;47.490;8.736;2023-04-28T10:17:02;96496.72;;;12.93;100.00
70954;BME280;58618;47.490;8.736;2023-04-28T10:19:52;96482.25;;;12.92;100.00
70954;BME280;58618;47.490;8.736;2023-04-28T10:22:51;96501.72;;;12.89;100.00
70954;BME280;58618;47.490;8.736;2023-04-28T10:25:42;96473.34;;;13.11;100.00
70954;BME280;58618;47.490;8.736;2023-04-28T10:28:33;96481.59;;;13.41;100.00
70954;BME280;58618;47.490;8.736;2023-04-28T10:31:20;96490.22;;;13.50;100.00
70954;BME280;58618;47.490;8.736;2023-04-28T10:34:21;96487.72;;;13.45;100.00
70954;BME280;58618;47.490;8.736;2023-04-28T10:37:09;96483.53;;;13.22;100.00
70954;BME280;58618;47.490;8.736;2023-04-28T10:40:31;96480.25;;;13.30;100.00
70954;BME280;58618;47.490;8.736;2023-04-28T10:43:35;96480.00;;;13.53;100.00
70954;BME280;58618;47.490;8.736;2023-04-28T10:46:24;96481.66;;;13.85;100.00
70954;BME280;58618;47.490;8.736;2023-04-28T10:49:11;96480.56;;;13.78;100.00
70954;BME280;58618;47.490;8.736;2023-04-28T10:51:59;96469.44;;;14.00;100.00
70954;BME280;58618;47.490;8.736;2023-04-28T10:55:28;96487.47;;;14.27;100.00
70954;BME280;58618;47.490;8.736;2023-04-28T10:58:31;96485.75;;;14.22;100.00
70954;BME280;58618;47.490;8.736;2023-04-28T11:01:26;96484.75;;;14.54;100.00
70954;BME280;58618;47.490;8.736;2023-04-28T11:04:14;96486.84;;;14.74;100.00
70954;BME280;58618;47.490;8.736;2023-04-28T11:07:09;96489.13;;;14.76;100.00
70954;BME280;58618;47.490;8.736;2023-04-28T11:09:58;96481.19;;;15.12;100.00
70954;BME280;58618;47.490;8.736;2023-04-28T11:16:08;96468.00;;;15.00;100.00
70954;BME280;58618;47.490;8.736;2023-04-28T11:18:57;96481.53;;;14.79;100.00
70954;BME280;58618;47.490;8.736;2023-04-28T11:21:49;96472.56;;;14.94;100.00
70954;BME280;58618;47.490;8.736;2023-04-28T11:24:38;96465.28;;;15.05;100.00
70954;BME280;58618;47.490;8.736;2023-04-28T11:27:26;96474.75;;;15.09;100.00
70954;BME280;58618;47.490;8.736;2023-04-28T11:30:20;96465.72;;;15.63;100.00
70954;BME280;58618;47.490;8.736;2023-04-28T11:33:09;96463.91;;;16.07;100.00
70954;BME280;58618;47.490;8.736;2023-04-28T11:35:56;96472.00;;;15.88;100.00
70954;BME280;58618;47.490;8.736;2023-04-28T11:38:44;96471.56;;;15.95;100.00
70954;BME280;58618;47.490;8.736;2023-04-28T11:41:32;96465.28;;;15.79;100.00
70954;BME280;58618;47.490;8.736;2023-04-28T11:44:21;96472.94;;;15.84;100.00
70954;BME280;58618;47.490;8.736;2023-04-28T11:47:09;96471.06;;;15.93;100.00
70954;BME280;58618;47.490;8.736;2023-04-28T11:49:57;96472.09;;;16.43;100.00
70954;BME280;58618;47.490;8.736;2023-04-28T11:52:49;96475.66;;;16.13;100.00
70954;BME280;58618;47.490;8.736;2023-04-28T11:55:36;96475.84;;;15.91;100.00
70954;BME280;58618;47.490;8.736;2023-04-28T11:58:24;96475.81;;;16.25;100.00
70954;BME280;58618;47.490;8.736;2023-04-28T12:01:12;96474.13;;;16.03;100.00
70954;BME280;58618;47.490;8.736;2023-04-28T12:04:01;96467.56;;;15.54;100.00
70954;BME280;58618;47.490;8.736;2023-04-28T12:06:58;96470.41;;;15.44;100.00
70954;BME280;58618;47.490;8.736;2023-04-28T12:09:47;96478.94;;;15.28;100.00
70954;BME280;58618;47.490;8.736;2023-04-28T12:12:34;96480.09;;;15.52;100.00
70954;BME280;58618;47.490;8.736;2023-04-28T12:15:22;96460.22;;;15.56;100.00
70954;BME280;58618;47.490;8.736;2023-04-28T12:18:10;96474.59;;;15.97;100.00
70954;BME280;58618;47.490;8.736;2023-04-28T12:20:58;96480.97;;;16.60;100.00
70954;BME280;58618;47.490;8.736;2023-04-28T12:23:47;96475.75;;;16.98;100.00
70954;BME280;58618;47.490;8.736;2023-04-28T12:26:34;96476.75;;;17.22;100.00
70954;BME280;58618;47.490;8.736;2023-04-28T12:29:34;96486.34;;;17.01;100.00
70954;BME280;58618;47.490;8.736;2023-04-28T12:32:36;96480.72;;;16.91;100.00
70954;BME280;58618;47.490;8.736;2023-04-28T12:35:25;96471.97;;;16.95;100.00
70954;BME280;58618;47.490;8.736;2023-04-28T12:38:13;96479.13;;;17.07;100.00
70954;BME280;58618;47.490;8.736;2023-04-28T12:41:02;96475.44;;;16.70;100.00
70954;BME280;58618;47.490;8.736;2023-04-28T12:43:50;96476.34;;;16.74;100.00
70954;BME280;58618;47.490;8.736;2023-04-28T12:46:37;96472.47;;;16.80;100.00
70954;BME280;58618;47.490;8.736;2023-04-28T12:49:24;96471.97;;;16.95;100.00
70954;BME280;58618;47.490;8.736;2023-04-28T12:52:12;96466.09;;;16.98;100.00
70954;BME280;58618;47.490;8.736;2023-04-28T12:54:59;96472.50;;;17.09;100.00
70954;BME280;58618;47.490;8.736;2023-04-28T12:57:48;96468.53;;;17.03;100.00
70954;BME280;58618;47.490;8.736;2023-04-28T13:00:35;96473.75;;;17.03;100.00
70954;BME280;58618;47.490;8.736;2023-04-28T13:03:23;96468.63;;;16.86;100.00
70954;BME280;58618;47.490;8.736;2023-04-28T13:06:10;96470.28;;;16.91;100.00
70954;BME280;58618;47.490;8.736;2023-04-28T13:08:58;96465.22;;;16.94;100.00
70954;BME280;58618;47.490;8.736;2023-04-28T13:11:45;96452.00;;;16.99;100.00
70954;BME280;58618;47.490;8.736;2023-04-28T13:14:34;96453.97;;;17.31;100.00
70954;BME280;58618;47.490;8.736;2023-04-28T13:17:21;96451.06;;;17.33;100.00
70954;BME280;58618;47.490;8.736;2023-04-28T13:20:09;96443.19;;;17.42;100.00
70954;BME280;58618;47.490;8.736;2023-04-28T13:22:57;96439.31;;;17.18;100.00
70954;BME280;58618;47.490;8.736;2023-04-28T13:25:44;96436.09;;;16.92;100.00
70954;BME280;58618;47.490;8.736;2023-04-28T13:28:31;96424.13;;;17.70;100.00
70954;BME280;58618;47.490;8.736;2023-04-28T13:31:20;96416.88;;;17.76;100.00
70954;BME280;58618;47.490;8.736;2023-04-28T13:34:07;96423.84;;;17.43;100.00
70954;BME280;58618;47.490;8.736;2023-04-28T13:37:00;96431.94;;;17.91;100.00
70954;BME280;58618;47.490;8.736;2023-04-28T13:39:48;96431.75;;;17.96;100.00
70954;BME280;58618;47.490;8.736;2023-04-28T13:42:35;96428.22;;;18.13;100.00
70954;BME280;58618;47.490;8.736;2023-04-28T13:45:23;96418.00;;;17.66;100.00
70954;BME280;58618;47.490;8.736;2023-04-28T13:48:12;96413.91;;;17.57;100.00
70954;BME280;58618;47.490;8.736;2023-04-28T13:51:00;96413.38;;;17.01;100.00
70954;BME280;58618;47.490;8.736;2023-04-28T13:53:47;96409.59;;;17.40;100.00
70954;BME280;58618;47.490;8.736;2023-04-28T13:56:34;96398.53;;;17.22;100.00
70954;BME280;58618;47.490;8.736;2023-04-28T13:59:22;96397.69;;;17.60;100.00
70954;BME280;58618;47.490;8.736;2023-04-28T14:02:09;96386.28;;;17.44;100.00
70954;BME280;58618;47.490;8.736;2023-04-28T14:04:58;96387.97;;;17.40;100.00
70954;BME280;58618;47.490;8.736;2023-04-28T14:07:45;96382.81;;;17.31;100.00
70954;BME280;58618;47.490;8.736;2023-04-28T14:10:33;96380.75;;;16.95;100.00
70954;BME280;58618;47.490;8.736;2023-04-28T14:13:20;96389.38;;;17.16;100.00
70954;BME280;58618;47.490;8.736;2023-04-28T14:16:09;96379.94;;;17.03;100.00
70954;BME280;58618;47.490;8.736;2023-04-28T14:18:59;96381.22;;;16.97;100.00
70954;BME280;58618;47.490;8.736;2023-04-28T14:21:44;96376.22;;;16.83;100.00
70954;BME280;58618;47.490;8.736;2023-04-28T14:24:31;96383.81;;;16.68;100.00
70954;BME280;58618;47.490;8.736;2023-04-28T14:27:19;96385.72;;;16.41;100.00
70954;BME280;58618;47.490;8.736;2023-04-28T14:30:07;96389.31;;;16.28;100.00
70954;BME280;58618;47.490;8.736;2023-04-28T14:32:55;96385.41;;;15.96;100.00
70954;BME280;58618;47.490;8.736;2023-04-28T14:35:42;96384.03;;;15.82;100.00
70954;BME280;58618;47.490;8.736;2023-04-28T14:38:31;96380.09;;;15.58;100.00
70954;BME280;58618;47.490;8.736;2023-04-28T14:41:18;96372.13;;;15.63;100.00
70954;BME280;58618;47.490;8.736;2023-04-28T14:44:06;96365.53;;;15.75;100.00